TimeEDT,TemperatureF,Dew PointF,Humidity,Sea Level PressureIn,VisibilityMPH,Wind Direction,Wind SpeedMPH,Gust SpeedMPH,PrecipitationIn,Events,Conditions,WindDirDegrees,DateUTC
12:53 AM,72.0,68.0,87,29.85,10.0,SSW,5.8,-,N/A,,Overcast,210,2013-05-24 04:53:00
1:53 AM,70.0,66.9,90,29.84,10.0,SW,4.6,-,N/A,,Partly Cloudy,220,2013-05-24 05:53:00
2:53 AM,70.0,66.9,90,29.81,10.0,SW,5.8,-,N/A,,Overcast,220,2013-05-24 06:53:00
3:53 AM,69.1,66.9,93,29.80,10.0,SW,4.6,-,N/A,,Clear,220,2013-05-24 07:53:00
4:07 AM,69.8,66.2,88,29.80,10.0,WNW,12.7,21.9,N/A,,Scattered Clouds,300,2013-05-24 08:07:00
4:53 AM,68.0,66.0,93,29.82,10.0,West,4.6,-,N/A,,Partly Cloudy,280,2013-05-24 08:53:00
5:53 AM,68.0,64.9,90,29.83,10.0,Calm,Calm,-,N/A,,Scattered Clouds,0,2013-05-24 09:53:00
6:53 AM,68.0,64.9,90,29.85,10.0,NW,4.6,-,N/A,,Clear,320,2013-05-24 10:53:00
7:53 AM,70.0,64.0,81,29.85,10.0,NNW,9.2,-,N/A,,Clear,330,2013-05-24 11:53:00
8:53 AM,73.0,62.1,68,29.88,10.0,NW,8.1,-,N/A,,Clear,310,2013-05-24 12:53:00
9:53 AM,75.9,62.1,62,29.88,-9999.0,WNW,9.2,-,N/A,,Clear,300,2013-05-24 13:53:00
10:53 AM,75.0,59.0,57,29.90,10.0,NNW,15.0,-,N/A,,Mostly Cloudy,330,2013-05-24 14:53:00
11:53 AM,79.0,60.1,52,29.91,10.0,NNW,15.0,-,N/A,,Partly Cloudy,330,2013-05-24 15:53:00
12:53 PM,79.0,60.1,52,29.91,10.0,NW,15.0,21.9,N/A,,Scattered Clouds,310,2013-05-24 16:53:00
1:53 PM,78.1,59.0,52,29.92,10.0,NW,10.4,-,N/A,,Mostly Cloudy,310,2013-05-24 17:53:00
2:53 PM,80.1,57.9,47,29.93,10.0,NW,17.3,23.0,N/A,,Scattered Clouds,310,2013-05-24 18:53:00
3:53 PM,77.0,55.9,48,29.94,10.0,NNW,23.0,29.9,N/A,,Scattered Clouds,330,2013-05-24 19:53:00
4:53 PM,77.0,53.1,43,29.96,10.0,NNW,15.0,23.0,N/A,,Scattered Clouds,330,2013-05-24 20:53:00
5:53 PM,75.9,48.0,37,29.99,10.0,NW,18.4,-,N/A,,Clear,320,2013-05-24 21:53:00
6:53 PM,72.0,36.0,27,30.02,10.0,NW,19.6,26.5,N/A,,Clear,320,2013-05-24 22:53:00
7:53 PM,68.0,41.0,37,30.06,10.0,NNW,12.7,-,N/A,,Clear,330,2013-05-24 23:53:00
8:53 PM,64.0,41.0,43,30.09,10.0,NW,10.4,-,N/A,,Clear,320,2013-05-25 00:53:00
9:53 PM,60.1,43.0,53,30.13,10.0,NNW,4.6,-,N/A,,Clear,340,2013-05-25 01:53:00
10:53 PM,60.1,42.1,51,30.16,10.0,NNW,6.9,-,N/A,,Clear,340,2013-05-25 02:53:00
11:53 PM,55.9,41.0,57,30.16,10.0,North,5.8,-,N/A,,Clear,10,2013-05-25 03:53:00